Time;durP1;ratioP1;P1;durP2;ratioP2;P2;SDS_P1;SDS_P2;PMS_P1;PMS_P2;Temp;Humidity;BMP_temperature;BMP_pressure;BME280_temperature;BME280_humidity;BME280_pressure;Samples;Min_cycle;Max_cycle;Signal;HPM_P1;HPM_P2
2021/09/25 00:01:40;;;;;;;4.85;3.47;;;;;;;16.71;53.10;101231.96;1773073;80;20945;-49
2021/09/25 00:04:08;;;;;;;4.03;3.27;;;;;;;16.68;53.09;101234.73;1770705;80;21478;-49
2021/09/25 00:06:34;;;;;;;4.80;3.35;;;;;;;16.66;53.16;101233.93;1774380;80;20991;-50
2021/09/25 00:09:01;;;;;;;4.47;3.25;;;;;;;16.63;53.15;101237.15;1771987;80;20994;-49
2021/09/25 00:11:29;;;;;;;4.53;3.70;;;;;;;16.57;53.26;101234.76;1769956;80;20998;-49
2021/09/25 00:13:57;;;;;;;4.55;3.50;;;;;;;16.54;53.44;101237.48;1770277;80;20986;-50
2021/09/25 00:18:53;;;;;;;4.10;3.37;;;;;;;16.53;53.33;101241.02;1726952;83;21017;-50
2021/09/25 00:21:20;;;;;;;5.92;3.95;;;;;;;16.49;53.37;101230.19;1727696;83;21033;-49
2021/09/25 00:23:47;;;;;;;7.10;3.60;;;;;;;16.47;53.40;101231.58;1727604;83;20985;-51
2021/09/25 00:26:13;;;;;;;4.55;3.45;;;;;;;16.47;53.31;101238.59;1727288;83;21057;-49
2021/09/25 00:28:40;;;;;;;5.12;3.50;;;;;;;16.44;53.34;101240.04;1727377;83;21020;-49
2021/09/25 00:31:06;;;;;;;3.20;2.90;;;;;;;16.41;53.39;101244.08;1727675;83;20981;-49
2021/09/25 00:33:33;;;;;;;3.95;3.50;;;;;;;16.36;53.45;101240.34;1727429;83;21080;-49
2021/09/25 00:36:00;;;;;;;4.78;3.67;;;;;;;16.33;53.50;101244.83;1727589;83;21011;-49
2021/09/25 00:38:27;;;;;;;5.08;3.80;;;;;;;16.29;53.64;101248.90;1727414;83;21013;-49
2021/09/25 00:40:53;;;;;;;6.00;3.22;;;;;;;16.27;53.62;101252.04;1727281;83;21029;-50
2021/09/25 00:43:20;;;;;;;4.87;3.45;;;;;;;16.24;53.61;101246.89;1729107;83;21071;-49
2021/09/25 00:45:47;;;;;;;7.10;3.60;;;;;;;16.18;53.69;101247.56;1734464;82;21505;-47
2021/09/25 00:48:13;;;;;;;4.47;3.33;;;;;;;16.14;53.84;101244.66;1696832;84;21006;-49
2021/09/25 00:50:40;;;;;;;4.95;3.92;;;;;;;16.11;53.84;101243.02;1670029;86;21566;-49
2021/09/25 00:53:06;;;;;;;4.92;4.40;;;;;;;16.10;53.91;101246.55;1699219;84;21066;-47
2021/09/25 00:55:33;;;;;;;4.47;3.45;;;;;;;16.08;53.91;101253.63;1687064;84;21033;-49
2021/09/25 00:58:02;;;;;;;8.03;3.60;;;;;;;16.07;53.99;101257.14;1722017;82;21521;-50
2021/09/25 01:00:29;;;;;;;4.58;3.65;;;;;;;16.08;53.90;101253.63;1699446;84;21573;-49
2021/09/25 01:02:55;;;;;;;5.87;3.50;;;;;;;16.05;53.79;101251.09;1734631;82;21048;-49
2021/09/25 01:05:23;;;;;;;4.08;2.98;;;;;;;16.04;53.85;101250.70;1734948;83;21557;-49
2021/09/25 01:07:50;;;;;;;3.85;3.30;;;;;;;16.05;53.81;101248.47;1699580;84;20995;-49
2021/09/25 01:10:17;;;;;;;5.53;3.15;;;;;;;16.04;53.57;101250.70;1710604;83;20957;-47
2021/09/25 01:12:44;;;;;;;4.78;2.98;;;;;;;16.01;53.58;101252.12;1699387;84;21033;-49
2021/09/25 01:15:11;;;;;;;4.03;3.20;;;;;;;16.01;53.65;101259.98;1743906;81;20972;-49
2021/09/25 01:17:38;;;;;;;6.20;3.12;;;;;;;16.02;53.66;101259.55;1779177;80;21053;-50
2021/09/25 01:20:06;;;;;;;3.65;2.95;;;;;;;16.03;53.45;101266.05;1783819;80;21478;-49
2021/09/25 01:22:33;;;;;;;4.58;3.27;;;;;;;16.02;53.25;101263.03;1779815;80;21489;-49
2021/09/25 01:25:01;;;;;;;4.00;2.85;;;;;;;15.99;53.33;101267.06;1790535;80;21036;-49
2021/09/25 01:27:28;;;;;;;3.37;2.70;;;;;;;15.98;53.21;101273.69;1776757;80;21048;-49
2021/09/25 01:29:54;;;;;;;7.78;3.15;;;;;;;15.95;53.21;101273.34;1778117;80;21462;-49
2021/09/25 01:32:20;;;;;;;4.85;3.02;;;;;;;15.95;53.17;101277.75;1779040;80;21022;-49
2021/09/25 01:34:47;;;;;;;4.17;3.08;;;;;;;15.94;52.99;101279.52;1777655;80;21529;-49
2021/09/25 01:37:14;;;;;;;4.50;3.15;;;;;;;15.92;53.06;101278.71;1776591;80;21005;-49
2021/09/25 01:39:40;;;;;;;3.77;3.10;;;;;;;15.91;53.04;101285.34;1776380;80;20998;-50
2021/09/25 01:42:08;;;;;;;3.77;3.02;;;;;;;15.88;52.99;101282.36;1779306;80;21001;-51
2021/09/25 01:44:34;;;;;;;3.95;2.58;;;;;;;15.87;53.05;101286.32;1773066;80;20994;-49
2021/09/25 01:47:01;;;;;;;5.65;2.98;;;;;;;15.86;53.01;101291.19;1777692;80;21502;-49
2021/09/25 01:49:28;;;;;;;6.50;3.30;;;;;;;15.83;52.99;101292.14;1766866;80;21034;-49
2021/09/25 01:51:55;;;;;;;3.30;2.55;;;;;;;15.82;53.08;101293.07;1765701;80;20990;-49
2021/09/25 01:54:21;;;;;;;4.33;2.85;;;;;;;15.81;53.03;101297.90;1765481;80;21029;-49
2021/09/25 01:56:48;;;;;;;5.97;2.87;;;;;;;15.81;53.00;101299.20;1768803;80;21009;-49
2021/09/25 01:59:15;;;;;;;4.70;2.90;;;;;;;15.81;52.89;101307.53;1768650;80;21489;-49
2021/09/25 02:01:41;;;;;;;4.37;2.95;;;;;;;15.78;52.93;101305.03;1769434;80;20977;-48
2021/09/25 02:04:08;;;;;;;6.35;2.92;;;;;;;15.77;52.95;101309.86;1769395;80;20978;-49
2021/09/25 02:06:34;;;;;;;5.10;2.92;;;;;;;15.76;53.07;101310.34;1768275;80;20979;-49
2021/09/25 02:09:00;;;;;;;4.65;2.75;;;;;;;15.79;53.07;101314.15;1766243;80;20934;-50
2021/09/25 02:11:27;;;;;;;3.90;2.55;;;;;;;15.82;53.11;101318.00;1765861;80;21015;-49
2021/09/25 02:13:53;;;;;;;3.98;2.72;;;;;;;15.87;52.89;101321.75;1768301;80;21053;-49
2021/09/25 02:16:20;;;;;;;4.12;2.47;;;;;;;15.88;52.72;101324.34;1767348;80;21006;-49
2021/09/25 02:18:47;;;;;;;3.58;2.67;;;;;;;15.87;52.51;101330.48;1767014;80;21049;-49
2021/09/25 02:21:13;;;;;;;4.80;3.50;;;;;;;15.85;52.54;101329.69;1765928;80;21502;-49
2021/09/25 02:23:40;;;;;;;5.00;2.50;;;;;;;15.82;52.48;101333.74;1766020;80;21037;-49
2021/09/25 02:26:06;;;;;;;6.90;2.83;;;;;;;15.78;52.51;101330.82;1762420;80;21009;-49
2021/09/25 02:28:33;;;;;;;4.87;2.72;;;;;;;15.75;52.43;101329.59;1769241;80;21481;-50
2021/09/25 02:31:00;;;;;;;4.03;2.40;;;;;;;15.71;52.52;101338.93;1769234;80;22031;-49
2021/09/25 02:33:27;;;;;;;4.58;2.85;;;;;;;15.67;52.57;101343.43;1768652;80;21014;-49
2021/09/25 02:35:53;;;;;;;4.45;2.77;;;;;;;15.63;52.64;101351.00;1768379;80;20998;-49
2021/09/25 02:38:20;;;;;;;4.47;2.37;;;;;;;15.57;52.66;101349.89;1766096;80;20966;-49
2021/09/25 02:40:46;;;;;;;5.75;2.45;;;;;;;15.53;52.78;101352.22;1765956;80;20986;-49
2021/09/25 02:43:13;;;;;;;5.08;2.60;;;;;;;15.49;52.88;101350.59;1770505;80;21010;-48
2021/09/25 02:45:39;;;;;;;5.08;2.72;;;;;;;15.50;53.01;101351.47;1780160;80;21058;-49
2021/09/25 02:48:06;;;;;;;4.03;2.70;;;;;;;15.46;53.01;101350.23;1772057;80;21010;-49
2021/09/25 02:50:32;;;;;;;4.40;2.65;;;;;;;15.48;53.02;101355.42;1775897;80;21510;-49
2021/09/25 02:52:59;;;;;;;5.25;3.12;;;;;;;15.50;53.15;101351.47;1772933;80;21049;-49
2021/09/25 02:55:26;;;;;;;5.58;2.87;;;;;;;15.54;53.15;101357.84;1774112;80;20970;-49
2021/09/25 02:57:52;;;;;;;6.30;2.92;;;;;;;15.57;53.07;101360.39;1773942;80;21517;-49
2021/09/25 03:00:21;;;;;;;5.30;2.50;;;;;;;15.62;52.99;101366.32;1775099;80;20994;-48
2021/09/25 03:02:48;;;;;;;4.80;2.60;;;;;;;15.67;52.89;101368.80;1774576;80;20951;-49
2021/09/25 03:05:14;;;;;;;4.92;2.70;;;;;;;15.71;52.67;101360.78;1772802;80;20987;-49
2021/09/25 03:07:41;;;;;;;3.70;2.70;;;;;;;15.74;52.67;101373.81;1771144;80;21013;-50
2021/09/25 03:10:09;;;;;;;5.42;2.58;;;;;;;15.76;52.42;101369.82;1772468;80;21529;-50
2021/09/25 03:12:36;;;;;;;2.75;2.08;;;;;;;15.79;52.43;101371.88;1781545;80;21001;-50
2021/09/25 03:15:04;;;;;;;6.40;2.83;;;;;;;15.80;52.29;101365.74;1773060;80;21000;-49
2021/09/25 03:17:30;;;;;;;5.50;3.33;;;;;;;15.82;52.40;101367.86;1771232;80;21528;-51
2021/09/25 03:19:57;;;;;;;5.45;3.20;;;;;;;15.84;52.26;101369.11;1784755;80;21010;-49
2021/09/25 03:22:23;;;;;;;6.12;2.70;;;;;;;15.85;52.40;101376.92;1771898;80;20986;-49
2021/09/25 03:24:49;;;;;;;4.70;2.50;;;;;;;15.88;52.48;101375.97;1771067;80;20998;-49
2021/09/25 03:27:16;;;;;;;5.55;2.70;;;;;;;15.89;52.10;101371.97;1773121;80;21030;-49
2021/09/25 03:29:43;;;;;;;5.87;2.77;;;;;;;15.89;52.07;101375.08;1773262;80;20998;-49
2021/09/25 03:32:09;;;;;;;4.67;2.77;;;;;;;15.89;51.91;101377.70;1772272;80;20994;-48
2021/09/25 03:34:36;;;;;;;4.58;2.70;;;;;;;15.85;51.90;101382.17;1771292;80;20977;-48
2021/09/25 03:37:03;;;;;;;5.10;2.35;;;;;;;15.80;51.76;101388.05;1771245;80;21009;-49
2021/09/25 03:39:31;;;;;;;3.17;2.40;;;;;;;15.74;51.92;101393.50;1773552;80;20988;-50
2021/09/25 03:41:57;;;;;;;5.60;2.98;;;;;;;15.72;52.03;101405.81;1774762;80;21453;-49
2021/09/25 03:44:24;;;;;;;5.28;2.37;;;;;;;15.70;52.06;101410.69;1774494;80;21056;-49
2021/09/25 03:46:50;;;;;;;5.75;2.60;;;;;;;15.68;52.35;101417.75;1774268;80;20998;-47
2021/09/25 03:49:17;;;;;;;4.83;2.83;;;;;;;15.67;52.26;101422.14;1774332;80;20995;-49
2021/09/25 03:51:43;;;;;;;4.05;2.55;;;;;;;15.65;52.35;101421.33;1771396;80;21501;-49
2021/09/25 03:54:10;;;;;;;6.15;2.58;;;;;;;15.64;52.16;101424.02;1771407;80;21028;-50
2021/09/25 03:56:36;;;;;;;6.75;2.80;;;;;;;15.62;52.39;101426.66;1772940;80;21001;-49
2021/09/25 03:59:03;;;;;;;6.17;2.58;;;;;;;15.63;52.34;101425.77;1773238;80;20987;-50
2021/09/25 04:01:30;;;;;;;4.10;2.50;;;;;;;15.63;52.30;101428.39;1772359;80;21016;-49
2021/09/25 04:03:57;;;;;;;3.90;2.30;;;;;;;15.63;52.24;101441.51;1771135;80;21478;-49
2021/09/25 04:06:25;;;;;;;5.05;2.27;;;;;;;15.62;52.21;101442.88;1771454;80;21041;-49
2021/09/25 04:08:53;;;;;;;5.50;2.20;;;;;;;15.62;52.21;101449.44;1773371;80;21010;-49
2021/09/25 04:11:20;;;;;;;2.52;2.05;;;;;;;15.60;52.28;101452.08;1786965;80;20978;-49
2021/09/25 04:13:46;;;;;;;6.85;2.77;;;;;;;15.60;52.26;101458.64;1772769;80;20990;-47
2021/09/25 04:16:13;;;;;;;4.05;2.55;;;;;;;15.60;52.24;101461.74;1784863;80;21472;-49
2021/09/25 04:18:40;;;;;;;4.60;2.50;;;;;;;15.56;52.36;101460.95;1775946;80;21057;-49
2021/09/25 04:21:06;;;;;;;3.45;2.27;;;;;;;15.59;52.45;101474.44;1771076;80;21025;-47
2021/09/25 04:23:33;;;;;;;6.30;2.65;;;;;;;15.59;52.42;101468.75;1773102;80;21068;-48
2021/09/25 04:26:00;;;;;;;5.78;2.50;;;;;;;15.59;52.24;101473.13;1774254;80;21485;-50
2021/09/25 04:28:26;;;;;;;4.08;2.37;;;;;;;15.55;52.18;101481.55;1774787;80;20981;-52
2021/09/25 04:30:52;;;;;;;5.22;2.52;;;;;;;15.50;52.40;101479.51;1774635;80;20986;-49
2021/09/25 04:33:19;;;;;;;3.95;2.22;;;;;;;15.50;52.57;101480.82;1774515;80;21498;-48
2021/09/25 04:35:45;;;;;;;9.63;2.87;;;;;;;15.52;52.62;101488.66;1771900;80;21045;-50
2021/09/25 04:38:12;;;;;;;4.78;2.85;;;;;;;15.54;52.75;101486.86;1771370;80;21000;-50
2021/09/25 04:40:39;;;;;;;5.33;3.33;;;;;;;15.57;52.88;101491.55;1772424;80;21033;-50
2021/09/25 04:43:05;;;;;;;4.20;2.60;;;;;;;15.60;52.80;101491.43;1773831;80;21025;-50
2021/09/25 04:45:32;;;;;;;4.30;2.55;;;;;;;15.63;52.87;101493.98;1772023;80;21038;-48
2021/09/25 04:47:58;;;;;;;5.90;3.08;;;;;;;15.67;52.87;101500.84;1766236;80;20954;-50
2021/09/25 04:50:29;;;;;;;5.65;3.20;;;;;;;15.70;52.68;101495.97;1765707;80;20997;-50
2021/09/25 04:52:53;;;;;;;7.90;3.65;;;;;;;15.73;52.55;101501.97;1764646;80;20977;-50
2021/09/25 04:55:20;;;;;;;7.75;3.42;;;;;;;15.76;52.67;101511.52;1768831;80;21521;-51
2021/09/25 04:57:46;;;;;;;9.80;3.65;;;;;;;15.78;52.57;101514.51;1769002;80;21029;-48
2021/09/25 05:00:14;;;;;;;8.65;3.42;;;;;;;15.81;52.60;101522.27;1769103;80;21494;-51
2021/09/25 05:02:41;;;;;;;4.67;3.20;;;;;;;15.84;52.66;101522.63;1768994;80;21450;-50
2021/09/25 05:05:09;;;;;;;3.50;2.80;;;;;;;15.88;52.71;101526.44;1766769;80;20987;-51
2021/09/25 05:07:36;;;;;;;4.55;2.02;;;;;;;15.93;52.57;101532.37;1770515;80;21478;-48
2021/09/25 05:10:04;;;;;;;4.45;2.35;;;;;;;15.98;52.73;101539.67;1776225;80;21030;-50
2021/09/25 05:12:31;;;;;;;5.50;2.67;;;;;;;16.02;52.52;101543.91;1768980;80;21498;-50
2021/09/25 05:14:57;;;;;;;5.67;2.75;;;;;;;16.05;52.56;101535.92;1766584;80;21002;-50
2021/09/25 05:17:24;;;;;;;6.22;2.75;;;;;;;16.09;52.50;101538.86;1765731;80;21497;-50
2021/09/25 05:19:50;;;;;;;4.65;2.27;;;;;;;16.13;52.65;101545.75;1767426;80;21013;-50
2021/09/25 05:22:18;;;;;;;8.80;2.50;;;;;;;16.19;52.57;101549.94;1768224;80;21065;-50
2021/09/25 05:24:45;;;;;;;4.42;2.20;;;;;;;16.24;52.57;101548.87;1773625;80;21465;-46
2021/09/25 05:27:12;;;;;;;3.62;2.58;;;;;;;16.29;52.37;101548.29;1771218;80;21065;-50
2021/09/25 05:29:39;;;;;;;4.67;2.33;;;;;;;16.33;52.27;101562.61;1763863;80;20938;-51
2021/09/25 05:32:07;;;;;;;4.28;2.00;;;;;;;16.35;52.19;101559.03;1767014;80;21010;-51
2021/09/25 05:34:34;;;;;;;6.53;2.50;;;;;;;16.39;52.08;101559.78;1769471;80;20962;-50
2021/09/25 05:37:00;;;;;;;9.40;2.70;;;;;;;16.44;52.21;101565.77;1768662;80;21520;-51
2021/09/25 05:39:27;;;;;;;5.80;2.37;;;;;;;16.49;51.97;101567.77;1769121;80;21037;-51
2021/09/25 05:41:54;;;;;;;7.78;3.15;;;;;;;16.52;51.90;101565.95;1769392;80;21033;-51
2021/09/25 05:44:20;;;;;;;4.20;2.67;;;;;;;16.56;51.72;101573.27;1767012;80;21010;-48
2021/09/25 05:46:47;;;;;;;6.20;2.72;;;;;;;16.57;51.84;101573.20;1771883;80;21553;-49
2021/09/25 05:49:13;;;;;;;7.25;2.65;;;;;;;16.59;51.92;101571.38;1774715;80;20966;-50
2021/09/25 05:51:41;;;;;;;2.92;2.42;;;;;;;16.63;51.88;101574.79;1774614;80;21024;-50
2021/09/25 05:54:07;;;;;;;5.42;2.83;;;;;;;16.69;51.95;101575.89;1774094;80;20986;-50
2021/09/25 05:56:34;;;;;;;5.47;2.30;;;;;;;16.79;51.88;101575.98;1774605;80;21018;-50
2021/09/25 05:59:01;;;;;;;3.90;2.45;;;;;;;16.89;51.92;101583.95;1772996;80;21505;-48
2021/09/25 06:01:27;;;;;;;4.55;2.50;;;;;;;17.02;51.83;101587.89;1770962;80;20993;-51
2021/09/25 06:03:54;;;;;;;5.30;2.65;;;;;;;17.12;51.59;101582.70;1771650;80;21498;-51
2021/09/25 06:06:20;;;;;;;7.47;3.25;;;;;;;17.21;51.54;101589.41;1781985;80;20994;-50
2021/09/25 06:08:47;;;;;;;4.08;2.20;;;;;;;17.29;51.43;101584.73;1779893;80;21037;-50
2021/09/25 06:11:13;;;;;;;7.33;3.05;;;;;;;17.38;51.23;101585.69;1777570;80;21028;-51
2021/09/25 06:13:40;;;;;;;6.62;2.72;;;;;;;17.45;51.07;101590.69;1769372;80;21048;-52
2021/09/25 06:16:07;;;;;;;5.00;2.67;;;;;;;17.51;50.89;101585.69;1785232;80;21002;-48
2021/09/25 06:18:33;;;;;;;8.60;2.60;;;;;;;17.51;50.87;101593.58;1775659;80;21010;-50
2021/09/25 06:21:00;;;;;;;7.67;2.90;;;;;;;17.54;50.83;101594.31;1778590;80;21512;-47
2021/09/25 06:23:26;;;;;;;5.05;2.50;;;;;;;17.57;50.83;101593.34;1778265;80;20962;-47
2021/09/25 06:25:53;;;;;;;6.33;2.80;;;;;;;17.57;50.73;101603.42;1772144;80;21053;-51
2021/09/25 06:28:20;;;;;;;5.50;2.47;;;;;;;17.57;50.36;101608.69;1774168;80;21002;-48
2021/09/25 06:30:46;;;;;;;4.95;2.40;;;;;;;17.56;50.57;101621.43;1786202;80;21005;-51
2021/09/25 06:33:13;;;;;;;5.08;2.55;;;;;;;17.56;50.76;101616.16;1772068;80;21482;-47
2021/09/25 06:35:40;;;;;;;6.08;2.37;;;;;;;17.58;50.84;101623.55;1781596;80;21007;-53
2021/09/25 06:38:07;;;;;;;7.67;3.05;;;;;;;17.61;50.89;101633.98;1770706;80;20954;-51
2021/09/25 06:40:33;;;;;;;4.47;2.40;;;;;;;17.61;50.88;101635.30;1772664;80;21471;-48
2021/09/25 06:43:03;;;;;;;8.28;2.20;;;;;;;17.65;51.05;101642.61;1774704;80;21468;-47
2021/09/25 06:45:32;;;;;;;7.67;2.85;;;;;;;17.68;51.19;101647.30;1774553;80;21033;-49
2021/09/25 06:47:57;;;;;;;6.58;3.00;;;;;;;17.71;51.51;101648.52;1764507;80;21551;-47
2021/09/25 06:50:25;;;;;;;7.20;2.40;;;;;;;17.74;51.40;101648.86;1771445;80;20980;-49
2021/09/25 06:52:52;;;;;;;5.75;2.47;;;;;;;17.77;51.23;101656.18;1776137;80;21484;-51
2021/09/25 06:55:18;;;;;;;6.92;2.90;;;;;;;17.81;51.35;101649.89;1773494;80;21017;-46
2021/09/25 06:57:45;;;;;;;7.45;2.65;;;;;;;17.85;51.29;101649.30;1770529;80;20970;-49
2021/09/25 07:00:14;;;;;;;12.82;2.52;;;;;;;17.92;50.93;101653.88;1775571;80;21011;-50
2021/09/25 07:02:40;;;;;;;6.53;3.02;;;;;;;17.99;50.58;101652.75;1763540;80;21052;-51
2021/09/25 07:05:10;;;;;;;7.47;2.80;;;;;;;18.04;50.64;101653.42;1765930;80;21069;-49
2021/09/25 07:07:37;;;;;;;9.48;3.72;;;;;;;18.12;50.28;101661.42;1778826;80;21549;-49
2021/09/25 07:10:05;;;;;;;8.50;2.95;;;;;;;18.19;50.33;101662.05;1776576;80;21459;-49
2021/09/25 07:12:33;;;;;;;4.90;2.30;;;;;;;18.22;50.47;101668.05;1779089;80;20955;-48
2021/09/25 07:15:00;;;;;;;7.47;2.70;;;;;;;18.24;50.24;101659.63;1771489;80;21002;-48
2021/09/25 07:17:27;;;;;;;7.12;2.42;;;;;;;18.26;50.27;101668.33;1772313;80;21006;-49
2021/09/25 07:19:54;;;;;;;5.70;2.72;;;;;;;18.29;50.48;101667.36;1767197;80;21005;-50
2021/09/25 07:22:21;;;;;;;6.58;2.65;;;;;;;18.33;50.60;101666.32;1768022;80;21051;-48
2021/09/25 07:24:53;;;;;;;6.87;2.70;;;;;;;18.38;50.32;101676.23;1777532;80;21043;-49
2021/09/25 07:27:17;;;;;;;7.95;2.98;;;;;;;18.41;49.56;101669.06;1777082;80;21498;-47
2021/09/25 07:29:43;;;;;;;5.60;2.25;;;;;;;18.44;49.30;101662.85;1775190;80;21131;-48
2021/09/25 07:32:10;;;;;;;4.40;2.33;;;;;;;18.47;49.52;101677.20;1770731;80;20969;-51
2021/09/25 07:34:37;;;;;;;7.12;3.08;;;;;;;18.49;49.29;101677.55;1765895;80;21008;-49
2021/09/25 07:37:05;;;;;;;6.05;2.95;;;;;;;18.52;49.55;101686.67;1766085;80;21002;-49
2021/09/25 07:39:32;;;;;;;8.98;2.85;;;;;;;18.57;49.76;101690.41;1778480;80;21013;-51
2021/09/25 07:41:59;;;;;;;10.08;3.42;;;;;;;18.61;50.00;101696.83;1768016;80;20996;-50
2021/09/25 07:44:26;;;;;;;9.63;3.10;;;;;;;18.67;49.95;101689.12;1769810;80;20994;-48
2021/09/25 07:46:53;;;;;;;6.83;2.70;;;;;;;18.71;49.92;101689.88;1771327;80;21022;-50
2021/09/25 07:49:19;;;;;;;4.15;2.35;;;;;;;18.74;49.34;101691.92;1777724;80;20998;-50
2021/09/25 07:51:46;;;;;;;6.85;2.62;;;;;;;18.76;49.11;101696.67;1775978;80;21454;-47
2021/09/25 07:54:13;;;;;;;5.72;2.72;;;;;;;18.80;48.94;101700.90;1772183;80;21006;-50
2021/09/25 07:56:40;;;;;;;7.25;2.92;;;;;;;18.83;48.88;101702.11;1769757;80;20996;-47
2021/09/25 07:59:06;;;;;;;6.55;2.60;;;;;;;18.87;49.32;101706.79;1772936;80;21525;-51
2021/09/25 08:01:33;;;;;;;6.08;2.98;;;;;;;18.90;49.29;101708.83;1773761;80;21025;-49
2021/09/25 08:04:00;;;;;;;6.47;2.42;;;;;;;18.93;49.45;101715.31;1778701;80;20948;-50
2021/09/25 08:06:26;;;;;;;5.60;2.90;;;;;;;18.97;49.71;101712.95;1773998;80;21060;-51
2021/09/25 08:08:53;;;;;;;5.17;2.70;;;;;;;19.00;49.52;101707.53;1779776;80;21427;-51
2021/09/25 08:11:20;;;;;;;9.28;2.77;;;;;;;19.01;49.76;101707.94;1780960;80;20934;-51
2021/09/25 08:13:47;;;;;;;5.75;3.12;;;;;;;19.02;50.23;101712.28;1774360;80;20978;-48
2021/09/25 08:16:14;;;;;;;8.10;2.95;;;;;;;19.03;50.40;101710.05;1776006;80;20996;-50
2021/09/25 08:18:40;;;;;;;6.90;2.72;;;;;;;19.06;50.10;101711.23;1776066;80;20947;-47
2021/09/25 08:21:07;;;;;;;8.10;3.30;;;;;;;19.08;50.32;101712.02;1775448;80;20976;-47
2021/09/25 08:23:33;;;;;;;7.03;2.83;;;;;;;19.10;50.27;101711.98;1774607;80;21073;-50
2021/09/25 08:26:00;;;;;;;6.62;2.85;;;;;;;19.11;50.17;101718.95;1779106;80;21526;-47
2021/09/25 08:28:27;;;;;;;7.45;2.67;;;;;;;19.11;50.54;101723.78;1770663;80;20965;-49
2021/09/25 08:30:54;;;;;;;6.45;2.60;;;;;;;19.14;50.74;101723.67;1775525;80;21082;-51
2021/09/25 08:33:21;;;;;;;6.95;3.08;;;;;;;19.19;50.84;101722.13;1774045;80;21054;-49
2021/09/25 08:35:47;;;;;;;8.30;3.02;;;;;;;19.24;51.09;101734.23;1779602;80;21053;-50
2021/09/25 08:38:14;;;;;;;7.22;2.87;;;;;;;19.30;50.81;101726.51;1766663;80;21047;-49
2021/09/25 08:40:41;;;;;;;6.40;2.72;;;;;;;19.34;50.77;101732.95;1771449;80;21516;-48
2021/09/25 08:43:07;;;;;;;7.22;2.67;;;;;;;19.40;50.27;101728.73;1774067;80;20984;-51
2021/09/25 08:45:34;;;;;;;7.40;3.00;;;;;;;19.43;50.26;101721.98;1781768;80;21034;-49
2021/09/25 08:48:01;;;;;;;10.95;4.17;;;;;;;19.47;50.23;101730.16;1751628;80;21088;-48
2021/09/25 08:50:27;;;;;;;8.08;4.10;;;;;;;19.54;50.32;101733.41;1741256;82;20980;-50
2021/09/25 08:52:54;;;;;;;6.28;2.85;;;;;;;19.59;49.78;101737.17;1741297;82;21449;-49
2021/09/25 08:55:21;;;;;;;7.58;2.98;;;;;;;19.60;49.60;101729.17;1745115;82;21005;-50
2021/09/25 08:57:47;;;;;;;8.33;2.70;;;;;;;19.62;50.18;101732.61;1748933;82;21496;-50
2021/09/25 09:00:33;;;;;;;6.97;3.55;;;;;;;19.63;50.25;101731.70;1743042;81;21001;-49
2021/09/25 09:03:25;;;;;;;8.98;3.30;;;;;;;19.68;49.83;101740.25;1695698;84;21046;-49
2021/09/25 09:05:55;;;;;;;9.60;3.83;;;;;;;19.70;50.10;101735.77;1706865;84;21023;-50
2021/09/25 09:08:22;;;;;;;9.45;2.67;;;;;;;19.76;50.13;101733.34;1711600;84;20966;-47
2021/09/25 09:10:48;;;;;;;6.12;3.20;;;;;;;19.79;50.17;101734.51;1710460;84;21006;-49
2021/09/25 09:13:16;;;;;;;7.53;2.75;;;;;;;19.84;49.96;101733.40;1696429;84;20983;-47
2021/09/25 09:15:43;;;;;;;7.00;2.70;;;;;;;19.87;49.86;101736.34;1702338;84;21065;-49
2021/09/25 09:18:17;;;;;;;6.25;2.65;;;;;;;19.89;49.87;101735.81;1710509;84;21038;-50
2021/09/25 09:21:13;;;;;;;4.58;2.37;;;;;;;19.92;49.76;101735.69;1653223;86;21036;-49
2021/09/25 09:23:50;;;;;;;9.18;3.25;;;;;;;19.96;49.24;101742.55;1711551;84;20971;-50
2021/09/25 09:26:19;;;;;;;6.80;2.80;;;;;;;19.93;49.33;101742.67;1652933;86;21712;-48
2021/09/25 09:28:47;;;;;;;5.80;2.50;;;;;;;19.90;49.21;101743.69;1632760;86;21066;-49
2021/09/25 09:31:14;;;;;;;5.60;2.27;;;;;;;19.89;48.86;101741.95;1628194;86;21081;-49
2021/09/25 09:33:49;;;;;;;9.80;2.85;;;;;;;19.93;49.12;101749.27;1645032;86;21557;-48
2021/09/25 09:36:38;;;;;;;5.80;2.42;;;;;;;19.99;48.89;101752.99;1628201;86;21021;-51
2021/09/25 09:39:17;;;;;;;7.25;2.50;;;;;;;19.99;48.49;101755.63;1610869;87;21647;-49
2021/09/25 09:41:49;;;;;;;4.97;2.40;;;;;;;20.01;48.62;101749.81;1602746;88;21020;-51
2021/09/25 09:44:29;;;;;;;5.37;2.30;;;;;;;20.06;48.23;101750.45;1650234;86;21105;-48
2021/09/25 09:49:32;;;;;;;3.80;2.53;;;;;;;20.13;46.39;101747.94;1572654;90;21051;-50
2021/09/25 09:52:07;;;;;;;4.12;1.80;;;;;;;20.17;46.10;101755.63;1574105;91;21093;-49
2021/09/25 09:54:37;;;;;;;6.70;2.08;;;;;;;20.20;46.02;101757.31;1553441;92;21132;-50
2021/09/25 09:57:09;;;;;;;5.22;2.37;;;;;;;20.26;46.23;101758.35;1551519;92;21067;-48
2021/09/25 09:59:37;;;;;;;6.70;1.90;;;;;;;20.30;45.65;101765.22;1552369;92;21433;-49
2021/09/25 10:02:05;;;;;;;5.22;1.57;;;;;;;20.34;45.14;101760.17;1551396;92;21084;-49
2021/09/25 10:04:32;;;;;;;5.30;1.87;;;;;;;20.33;44.71;101758.48;1555778;92;21088;-49
2021/09/25 10:06:58;;;;;;;4.83;1.80;;;;;;;20.35;44.55;101753.98;1523100;94;21735;-50
2021/09/25 10:09:28;;;;;;;4.45;1.65;;;;;;;20.39;44.33;101754.23;1521667;94;21048;-50
2021/09/25 10:11:59;;;;;;;6.40;1.98;;;;;;;20.44;43.93;101761.95;1511570;95;21136;-50
2021/09/25 10:14:30;;;;;;;6.23;2.33;;;;;;;20.47;43.47;101764.44;1531235;93;21082;-49
2021/09/25 10:17:00;;;;;;;3.08;1.47;;;;;;;20.49;43.35;101757.29;1503119;95;22123;-51
2021/09/25 10:19:32;;;;;;;4.50;1.82;;;;;;;20.54;43.47;101763.23;1501675;95;21617;-53
2021/09/25 10:22:08;;;;;;;3.05;1.40;;;;;;;20.55;43.75;101763.15;1531391;92;21176;-50
2021/09/25 10:24:41;;;;;;;5.60;1.65;;;;;;;20.58;43.93;101761.70;1555258;91;21115;-49
2021/09/25 10:27:08;;;;;;;7.00;1.85;;;;;;;20.61;43.29;101769.47;1544863;92;21084;-49
2021/09/25 10:29:34;;;;;;;4.78;1.35;;;;;;;20.62;43.53;101771.20;1539280;93;21028;-49
2021/09/25 10:32:29;;;;;;;4.58;1.72;;;;;;;20.65;43.18;101764.43;1549058;91;21039;-51
2021/09/25 10:35:18;;;;;;;5.95;2.02;;;;;;;20.67;43.28;101767.86;1551427;92;21495;-48
2021/09/25 10:37:48;;;;;;;4.83;1.72;;;;;;;20.68;43.15;101766.95;1561214;92;21040;-47
2021/09/25 10:40:21;;;;;;;2.65;1.42;;;;;;;20.73;43.12;101773.34;1550247;92;21194;-49
2021/09/25 10:42:59;;;;;;;4.70;1.37;;;;;;;20.73;43.37;101765.41;1548459;92;21095;-50
2021/09/25 10:45:35;;;;;;;3.60;1.32;;;;;;;20.74;43.42;101765.78;1553467;92;21098;-49
2021/09/25 10:48:18;;;;;;;4.28;1.95;;;;;;;20.76;43.07;101772.72;1541896;92;21151;-47
2021/09/25 10:51:11;;;;;;;3.00;1.60;;;;;;;20.76;42.84;101774.05;1467982;95;21124;-49
2021/09/25 10:53:41;;;;;;;5.47;1.80;;;;;;;20.79;42.57;101775.20;1494006;94;21496;-49
2021/09/25 10:56:23;;;;;;;3.92;1.72;;;;;;;20.80;42.74;101766.35;1530471;93;21079;-50
2021/09/25 10:59:06;;;;;;;5.25;1.70;;;;;;;20.82;42.85;101768.46;1534433;92;21041;-48
2021/09/25 11:01:41;;;;;;;4.33;1.35;;;;;;;20.85;42.93;101770.97;1515272;93;21088;-49
2021/09/25 11:04:21;;;;;;;4.78;1.95;;;;;;;20.86;42.56;101770.02;1517938;94;21598;-48
2021/09/25 11:06:56;;;;;;;5.15;1.80;;;;;;;20.87;42.75;101769.11;1533068;93;21180;-48
2021/09/25 11:09:35;;;;;;;7.33;1.92;;;;;;;20.91;43.14;101769.81;1516966;94;21594;-49
2021/09/25 11:12:12;;;;;;;4.25;1.40;;;;;;;20.95;43.20;101769.59;1519047;93;21078;-49
2021/09/25 11:14:54;;;;;;;4.55;1.87;;;;;;;20.97;42.63;101780.95;1548454;92;21120;-47
2021/09/25 11:17:25;;;;;;;6.80;1.65;;;;;;;20.92;42.28;101780.31;1536758;92;21071;-50
2021/09/25 11:20:05;;;;;;;3.37;1.62;;;;;;;20.89;42.94;101784.44;1531960;92;21104;-49
2021/09/25 11:22:43;;;;;;;4.42;1.47;;;;;;;20.86;42.55;101783.25;1522733;93;21086;-49
2021/09/25 11:25:17;;;;;;;6.58;1.70;;;;;;;20.86;42.74;101791.19;1534427;92;21095;-48
2021/09/25 11:27:52;;;;;;;5.53;1.77;;;;;;;20.84;42.73;101787.76;1521136;92;21098;-49
2021/09/25 11:30:24;;;;;;;4.97;1.95;;;;;;;20.82;42.88;101784.33;1544408;92;21082;-50
2021/09/25 11:33:03;;;;;;;6.90;1.80;;;;;;;20.85;43.07;101788.17;1526263;92;21052;-50
2021/09/25 11:35:36;;;;;;;4.70;1.70;;;;;;;20.87;43.52;101781.02;1542037;92;21090;-50